Time;durP1;ratioP1;P1;durP2;ratioP2;P2;SDS_P1;SDS_P2;PMS_P1;PMS_P2;Temp;Humidity;BMP_temperature;BMP_pressure;BME280_temperature;BME280_humidity;BME280_pressure;Samples;Min_cycle;Max_cycle;Signal;HPM_P1;HPM_P2
2022/11/14 00:00:24;;;;;;;42.88;23.83;;;11.70;73.70;;;;;;2346752;57;21523;-61
2022/11/14 00:02:52;;;;;;;42.45;23.80;;;11.70;73.70;;;;;;2346757;57;21584;-61
2022/11/14 00:05:20;;;;;;;41.80;23.95;;;11.70;73.80;;;;;;2346260;57;21538;-61
2022/11/14 00:07:47;;;;;;;44.15;23.62;;;11.70;73.90;;;;;;2346056;57;21046;-61
2022/11/14 00:10:16;;;;;;;42.67;24.50;;;11.70;73.90;;;;;;2344972;57;21054;-61
2022/11/14 00:12:44;;;;;;;41.30;24.83;;;11.70;73.90;;;;;;2345308;57;21049;-61
2022/11/14 00:15:12;;;;;;;42.13;23.83;;;11.70;73.90;;;;;;2345599;57;21122;-61
2022/11/14 00:17:39;;;;;;;42.30;23.50;;;11.70;73.70;;;;;;2345356;57;21604;-60
2022/11/14 00:20:10;;;;;;;43.83;24.27;;;11.60;73.70;;;;;;2345318;57;21053;-61
2022/11/14 00:22:38;;;;;;;41.78;23.58;;;11.60;73.70;;;;;;2345325;57;21146;-61
2022/11/14 00:25:06;;;;;;;45.00;24.10;;;11.60;73.70;;;;;;2344207;57;21081;-60
2022/11/14 00:27:34;;;;;;;46.42;24.00;;;11.60;73.60;;;;;;2345363;57;21089;-61
2022/11/14 00:30:01;;;;;;;43.95;23.58;;;11.60;73.60;;;;;;2345234;57;21616;-61
2022/11/14 00:32:29;;;;;;;43.25;24.35;;;11.60;73.60;;;;;;2345290;57;21636;-61
2022/11/14 00:34:57;;;;;;;41.70;22.48;;;11.50;73.60;;;;;;2344934;57;21085;-61
2022/11/14 00:37:24;;;;;;;43.10;24.25;;;11.50;73.40;;;;;;2345550;57;21125;-61
2022/11/14 00:42:27;;;;;;;49.85;25.80;;;11.50;73.40;;;;;;2355744;57;22105;-60
2022/11/14 00:44:54;;;;;;;45.25;24.52;;;11.50;73.30;;;;;;2347654;57;21223;-60
2022/11/14 00:47:22;;;;;;;42.50;23.35;;;11.40;73.30;;;;;;2346630;57;21105;-61
2022/11/14 00:49:49;;;;;;;47.05;26.05;;;11.30;73.20;;;;;;2346603;57;21486;-60
2022/11/14 00:52:16;;;;;;;48.25;26.00;;;11.30;73.40;;;;;;2346176;57;21018;-60
2022/11/14 00:54:43;;;;;;;49.00;25.70;;;11.20;73.50;;;;;;2346368;57;21034;-60
2022/11/14 00:57:10;;;;;;;52.33;27.08;;;11.20;73.60;;;;;;2345392;57;21572;-60
2022/11/14 00:59:38;;;;;;;48.80;25.60;;;11.10;73.60;;;;;;2346013;57;21129;-60
2022/11/14 01:02:05;;;;;;;45.00;23.40;;;11.10;73.80;;;;;;2346175;57;21105;-61
2022/11/14 01:04:32;;;;;;;43.20;24.00;;;11.10;73.80;;;;;;2346919;57;21049;-60
2022/11/14 01:06:59;;;;;;;48.63;24.63;;;11.10;73.90;;;;;;2346602;57;21113;-63
2022/11/14 01:09:27;;;;;;;47.40;25.88;;;11.10;74.00;;;;;;2346318;57;21030;-62
2022/11/14 01:11:54;;;;;;;46.45;25.55;;;11.00;73.90;;;;;;2346116;57;21046;-60
2022/11/14 01:14:21;;;;;;;46.05;23.62;;;11.00;74.10;;;;;;2345760;57;21738;-62
2022/11/14 01:16:48;;;;;;;42.50;24.33;;;11.00;74.20;;;;;;2345539;57;21528;-62
2022/11/14 01:19:15;;;;;;;49.47;25.95;;;11.00;74.20;;;;;;2346621;57;21160;-62
2022/11/14 01:21:42;;;;;;;46.28;24.12;;;11.00;74.20;;;;;;2346213;57;21058;-62
2022/11/14 01:24:10;;;;;;;48.72;24.08;;;11.00;74.30;;;;;;2346498;57;21030;-62
2022/11/14 01:26:37;;;;;;;54.42;26.70;;;11.00;74.30;;;;;;2346341;57;21042;-60
2022/11/14 01:29:04;;;;;;;47.83;24.48;;;11.00;74.20;;;;;;2346235;57;21093;-61
2022/11/14 01:31:31;;;;;;;44.83;23.65;;;10.90;74.20;;;;;;2345454;57;21042;-61
2022/11/14 01:33:58;;;;;;;46.45;24.48;;;11.00;74.40;;;;;;2346213;57;21050;-61
2022/11/14 01:36:26;;;;;;;52.10;25.23;;;11.00;74.50;;;;;;2346571;57;21106;-61
2022/11/14 01:38:53;;;;;;;53.28;27.08;;;11.00;74.50;;;;;;2346537;57;21074;-62
2022/11/14 01:41:21;;;;;;;48.20;24.58;;;10.90;74.40;;;;;;2346202;57;21117;-61
2022/11/14 01:43:49;;;;;;;47.25;25.52;;;10.90;74.50;;;;;;2346375;57;21196;-62
2022/11/14 01:46:21;;;;;;;45.03;24.58;;;10.90;74.60;;;;;;2346150;57;21058;-60
2022/11/14 01:48:51;;;;;;;48.83;25.37;;;10.90;74.60;;;;;;2345796;57;21109;-63
2022/11/14 01:51:23;;;;;;;48.35;25.83;;;11.00;74.70;;;;;;2346226;57;22059;-60
2022/11/14 01:53:53;;;;;;;43.80;23.57;;;11.00;74.60;;;;;;2345472;57;21105;-62
2022/11/14 01:56:25;;;;;;;49.45;25.65;;;11.00;74.40;;;;;;2345481;57;21561;-62
2022/11/14 01:58:56;;;;;;;45.00;25.37;;;11.00;74.20;;;;;;2345109;57;21517;-62
2022/11/14 02:01:24;;;;;;;45.08;24.50;;;11.00;74.20;;;;;;2344897;57;21533;-62
2022/11/14 02:03:53;;;;;;;42.80;24.15;;;11.00;74.20;;;;;;2345455;57;21549;-62
2022/11/14 02:06:23;;;;;;;43.28;23.75;;;11.00;74.30;;;;;;2344689;57;21541;-62
2022/11/14 02:08:51;;;;;;;52.22;26.42;;;11.00;74.20;;;;;;2345513;57;21506;-63
2022/11/14 02:11:19;;;;;;;51.15;26.15;;;11.00;74.20;;;;;;2345681;57;21054;-61
2022/11/14 02:13:46;;;;;;;45.55;25.33;;;10.90;74.10;;;;;;2345771;57;21624;-62
2022/11/14 02:16:14;;;;;;;47.62;24.75;;;10.90;74.30;;;;;;2345035;57;21132;-62
2022/11/14 02:18:41;;;;;;;47.25;26.02;;;10.90;74.40;;;;;;2345007;57;21564;-61
2022/11/14 02:21:08;;;;;;;50.80;26.12;;;10.90;74.40;;;;;;2345357;57;21605;-62
2022/11/14 02:23:55;;;;;;;50.17;26.83;;;10.90;74.30;;;;;;2344882;57;21081;-60
2022/11/14 02:26:22;;;;;;;41.47;24.55;;;10.90;75.30;;;;;;2262280;59;21070;-61
2022/11/14 02:28:50;;;;;;;47.95;24.75;;;11.00;74.30;;;;;;2268308;59;21595;-58
2022/11/14 02:31:17;;;;;;;51.67;26.25;;;10.90;74.40;;;;;;2267772;59;21638;-61
2022/11/14 02:33:44;;;;;;;50.80;25.85;;;10.90;74.20;;;;;;2267804;59;21056;-56
2022/11/14 02:36:11;;;;;;;47.62;24.67;;;10.90;74.20;;;;;;2268369;59;21152;-59
2022/11/14 02:38:39;;;;;;;49.38;25.15;;;10.90;74.30;;;;;;2268019;59;21200;-58
2022/11/14 02:41:06;;;;;;;52.55;27.13;;;10.90;74.20;;;;;;2267535;59;21080;-58
2022/11/14 02:43:33;;;;;;;47.70;24.92;;;10.90;74.20;;;;;;2267891;59;21092;-56
2022/11/14 02:46:52;;;;;;;47.65;25.65;;;10.80;74.20;;;;;;2268286;59;21124;-57
2022/11/14 02:49:19;;;;;;;49.88;23.98;;;10.80;75.10;;;;;;2267193;59;21615;-59
2022/11/14 02:51:46;;;;;;;47.15;24.77;;;10.80;74.30;;;;;;2267830;59;21567;-56
2022/11/14 02:54:14;;;;;;;47.20;24.27;;;10.80;74.60;;;;;;2267948;59;21065;-55
2022/11/14 02:56:41;;;;;;;46.65;25.17;;;10.80;74.60;;;;;;2267091;59;21084;-58
2022/11/14 02:59:08;;;;;;;52.42;25.42;;;10.80;74.50;;;;;;2267997;59;21615;-60
2022/11/14 03:01:35;;;;;;;49.47;24.63;;;10.80;74.40;;;;;;2267856;59;21687;-59
2022/11/14 03:04:03;;;;;;;50.90;26.83;;;10.80;74.30;;;;;;2267735;59;21113;-60
2022/11/14 03:06:30;;;;;;;47.42;24.00;;;10.70;74.30;;;;;;2267859;59;21199;-59
2022/11/14 03:08:57;;;;;;;48.58;24.23;;;10.70;74.50;;;;;;2267903;59;21116;-58
2022/11/14 03:11:25;;;;;;;45.35;24.58;;;10.60;74.60;;;;;;2268030;59;21557;-59
2022/11/14 03:13:52;;;;;;;47.25;24.87;;;10.60;74.70;;;;;;2267258;59;21077;-60
2022/11/14 03:16:19;;;;;;;47.10;26.35;;;10.70;74.90;;;;;;2267888;59;21066;-59
2022/11/14 03:18:46;;;;;;;52.00;26.02;;;10.70;74.80;;;;;;2268019;59;21611;-60
2022/11/14 03:21:16;;;;;;;50.85;25.88;;;10.70;74.80;;;;;;2267152;59;21067;-60
2022/11/14 03:23:43;;;;;;;50.55;26.70;;;10.70;75.00;;;;;;2268130;59;21547;-59
2022/11/14 03:26:12;;;;;;;53.97;28.73;;;10.70;74.70;;;;;;2267878;59;21627;-59
2022/11/14 03:28:40;;;;;;;48.85;25.02;;;10.70;74.70;;;;;;2268451;59;21571;-57
2022/11/14 03:31:09;;;;;;;52.92;27.35;;;10.70;75.50;;;;;;2267143;59;21068;-57
2022/11/14 03:33:36;;;;;;;52.58;25.77;;;10.70;74.80;;;;;;2267872;59;21666;-60
2022/11/14 03:36:05;;;;;;;52.85;26.37;;;10.70;74.80;;;;;;2267953;59;21077;-62
2022/11/14 03:38:33;;;;;;;51.40;26.62;;;10.60;74.80;;;;;;2267233;59;21113;-62
2022/11/14 03:41:01;;;;;;;50.25;25.40;;;10.70;74.80;;;;;;2267956;59;21614;-61
2022/11/14 03:43:31;;;;;;;53.20;27.67;;;10.70;74.80;;;;;;2267781;59;21567;-62
2022/11/14 03:45:59;;;;;;;44.00;23.65;;;10.70;74.80;;;;;;2268006;59;21528;-61
2022/11/14 03:48:27;;;;;;;49.45;26.20;;;10.70;74.80;;;;;;2267592;59;21238;-62
2022/11/14 03:50:55;;;;;;;48.25;27.35;;;10.70;74.80;;;;;;2267973;59;21547;-62
2022/11/14 03:53:22;;;;;;;50.00;26.60;;;10.70;74.70;;;;;;2267726;59;21077;-61
2022/11/14 03:55:49;;;;;;;52.55;27.42;;;10.70;74.80;;;;;;2267432;59;21709;-62
2022/11/14 03:58:17;;;;;;;53.03;26.23;;;10.70;74.70;;;;;;2267778;59;21746;-62
2022/11/14 04:00:44;;;;;;;48.05;27.65;;;10.70;74.60;;;;;;2267265;59;21116;-59
2022/11/14 04:03:12;;;;;;;50.17;26.45;;;10.70;74.70;;;;;;2267502;59;21603;-62
2022/11/14 04:05:39;;;;;;;50.00;27.55;;;10.60;74.70;;;;;;2267174;59;21212;-61
2022/11/14 04:08:07;;;;;;;47.03;25.98;;;10.60;74.70;;;;;;2267623;59;21144;-62
2022/11/14 04:10:34;;;;;;;46.20;24.83;;;10.60;74.70;;;;;;2267821;59;21120;-62
2022/11/14 04:13:03;;;;;;;46.45;24.63;;;10.60;74.90;;;;;;2268209;59;21543;-62
2022/11/14 04:15:31;;;;;;;45.65;24.48;;;10.60;74.90;;;;;;2267642;59;21540;-62
2022/11/14 04:17:58;;;;;;;47.20;26.33;;;10.60;74.90;;;;;;2267981;59;21076;-61
2022/11/14 04:20:25;;;;;;;45.80;25.48;;;10.60;74.80;;;;;;2267316;59;21078;-62
2022/11/14 04:22:52;;;;;;;45.55;23.87;;;10.60;74.40;;;;;;2266683;59;21081;-61
2022/11/14 04:25:19;;;;;;;44.10;25.10;;;10.60;74.90;;;;;;2266744;59;21149;-62
2022/11/14 04:27:47;;;;;;;45.30;25.23;;;10.70;74.90;;;;;;2267995;59;21140;-62
2022/11/14 04:30:14;;;;;;;45.05;25.45;;;10.70;75.00;;;;;;2267795;59;21061;-62
2022/11/14 04:32:43;;;;;;;48.67;25.77;;;10.70;74.80;;;;;;2267899;59;21080;-62
2022/11/14 04:35:10;;;;;;;46.00;25.37;;;10.80;74.70;;;;;;2266992;59;22223;-61
2022/11/14 04:37:38;;;;;;;49.78;26.42;;;10.70;75.40;;;;;;2268055;59;21604;-62
2022/11/14 04:40:08;;;;;;;44.67;24.37;;;10.80;74.50;;;;;;2267164;59;21587;-61
2022/11/14 04:42:35;;;;;;;48.47;25.95;;;10.80;74.50;;;;;;2267838;59;21124;-62
2022/11/14 04:45:03;;;;;;;47.65;24.50;;;10.70;74.40;;;;;;2267501;59;21061;-61
2022/11/14 04:47:31;;;;;;;48.72;24.37;;;10.70;74.40;;;;;;2267127;59;21616;-62
2022/11/14 04:49:58;;;;;;;46.92;25.17;;;10.70;74.30;;;;;;2266984;59;21243;-64
2022/11/14 04:55:01;;;;;;;53.17;27.35;;;10.60;74.30;;;;;;2329086;57;22120;-61
2022/11/14 04:57:29;;;;;;;43.95;24.08;;;10.60;74.40;;;;;;2318951;58;21068;-61
2022/11/14 04:59:56;;;;;;;47.75;25.85;;;10.60;74.50;;;;;;2319091;58;21060;-61
2022/11/14 05:02:23;;;;;;;44.67;24.70;;;10.60;74.40;;;;;;2319810;58;21052;-62
2022/11/14 05:04:50;;;;;;;46.50;25.67;;;10.60;74.50;;;;;;2319391;58;21527;-62
2022/11/14 05:07:17;;;;;;;50.60;26.00;;;10.60;74.50;;;;;;2318694;58;21590;-62
2022/11/14 05:09:45;;;;;;;47.83;27.08;;;10.70;74.60;;;;;;2319439;58;21048;-61
2022/11/14 05:12:12;;;;;;;52.17;27.95;;;10.70;74.70;;;;;;2317840;58;21052;-62
2022/11/14 05:14:39;;;;;;;42.13;24.00;;;10.70;74.60;;;;;;2319752;58;21454;-62
2022/11/14 05:17:06;;;;;;;51.05;27.15;;;10.70;74.60;;;;;;2319414;58;21048;-62
2022/11/14 05:19:33;;;;;;;51.53;25.83;;;10.60;74.70;;;;;;2319054;58;21137;-62
2022/11/14 05:22:01;;;;;;;45.90;24.85;;;10.60;74.90;;;;;;2318875;58;21029;-63
2022/11/14 05:24:28;;;;;;;43.40;23.85;;;10.60;75.20;;;;;;2319507;58;21040;-61
2022/11/14 05:26:55;;;;;;;46.42;25.00;;;10.60;74.90;;;;;;2319645;58;21131;-62
2022/11/14 05:29:22;;;;;;;56.25;26.27;;;10.60;74.80;;;;;;2317786;58;21111;-62
2022/11/14 05:31:50;;;;;;;51.35;25.17;;;10.60;74.80;;;;;;2319427;58;21602;-62
2022/11/14 05:34:17;;;;;;;40.78;22.50;;;10.70;74.90;;;;;;2319899;58;21072;-61
2022/11/14 05:36:44;;;;;;;43.00;24.42;;;10.60;74.70;;;;;;2319769;58;21039;-62
2022/11/14 05:39:11;;;;;;;45.90;24.42;;;10.70;74.50;;;;;;2319442;58;21092;-61
2022/11/14 05:44:14;;;;;;;53.47;27.62;;;10.70;74.40;;;;;;2355321;57;22497;-60
2022/11/14 05:46:42;;;;;;;45.72;26.17;;;10.70;74.10;;;;;;2346784;57;21121;-60
2022/11/14 05:49:09;;;;;;;48.30;25.42;;;10.60;74.10;;;;;;2346725;57;21117;-60
2022/11/14 05:51:36;;;;;;;43.22;24.52;;;10.70;74.20;;;;;;2345920;57;21141;-61
2022/11/14 05:54:04;;;;;;;49.47;26.77;;;10.70;74.30;;;;;;2346879;57;21034;-61
2022/11/14 05:56:31;;;;;;;50.42;26.58;;;10.60;74.30;;;;;;2346012;57;21071;-61
2022/11/14 05:58:59;;;;;;;45.15;24.20;;;10.60;74.10;;;;;;2345794;57;21050;-62
2022/11/14 06:01:26;;;;;;;45.42;25.48;;;10.60;74.20;;;;;;2344758;57;21117;-61
2022/11/14 06:03:54;;;;;;;45.53;23.30;;;10.60;74.10;;;;;;2346036;57;21588;-61
2022/11/14 06:06:21;;;;;;;48.25;25.05;;;10.60;74.00;;;;;;2345863;57;21605;-61
2022/11/14 06:08:49;;;;;;;50.80;26.55;;;10.60;73.90;;;;;;2345993;57;21042;-61
2022/11/14 06:11:18;;;;;;;45.75;23.90;;;10.50;73.90;;;;;;2345741;57;21018;-61
2022/11/14 06:13:46;;;;;;;43.08;22.67;;;10.50;74.10;;;;;;2346937;57;21517;-61
2022/11/14 06:16:15;;;;;;;49.58;26.37;;;10.50;74.30;;;;;;2344403;57;21062;-61
2022/11/14 06:18:42;;;;;;;49.55;28.00;;;10.50;74.40;;;;;;2346167;57;21086;-64
2022/11/14 06:21:13;;;;;;;48.80;23.92;;;10.50;74.70;;;;;;2345106;57;21101;-65
2022/11/14 06:23:40;;;;;;;46.53;25.60;;;10.60;75.20;;;;;;2346389;57;21058;-67
2022/11/14 06:26:14;;;;;;;51.28;25.45;;;10.60;75.30;;;;;;2345696;57;21577;-62
2022/11/14 06:28:41;;;;;;;45.72;25.08;;;10.60;75.20;;;;;;2345529;57;21532;-60
2022/11/14 06:31:08;;;;;;;48.10;24.85;;;10.70;75.30;;;;;;2345762;57;21113;-62
2022/11/14 06:33:37;;;;;;;42.22;23.23;;;10.80;75.00;;;;;;2344353;57;21521;-60
2022/11/14 06:36:07;;;;;;;46.70;24.85;;;10.90;74.20;;;;;;2345968;57;21054;-62
2022/11/14 06:38:36;;;;;;;43.28;24.52;;;10.90;73.40;;;;;;2346185;57;21042;-61
2022/11/14 06:41:04;;;;;;;44.03;23.73;;;10.90;72.90;;;;;;2344600;57;21521;-65
2022/11/14 06:46:10;;;;;;;51.67;25.75;;;10.90;72.80;;;;;;2316854;57;22087;-67
2022/11/14 06:48:38;;;;;;;52.13;25.88;;;10.90;72.50;;;;;;2319458;58;21079;-67
2022/11/14 06:51:06;;;;;;;51.72;26.70;;;10.90;72.40;;;;;;2319724;58;21625;-66
2022/11/14 06:53:35;;;;;;;53.20;26.75;;;10.80;72.10;;;;;;2318516;58;21107;-67
2022/11/14 06:56:04;;;;;;;51.28;25.88;;;10.70;72.00;;;;;;2319475;58;21594;-67
2022/11/14 06:58:32;;;;;;;53.83;27.33;;;10.60;72.10;;;;;;2319378;58;21048;-65
2022/11/14 07:01:04;;;;;;;53.83;28.00;;;10.50;72.40;;;;;;2319250;58;21056;-65
2022/11/14 07:03:31;;;;;;;58.33;27.92;;;10.50;72.80;;;;;;2318974;58;21040;-65
2022/11/14 07:05:59;;;;;;;59.60;26.55;;;10.40;72.90;;;;;;2319749;58;21107;-65
2022/11/14 07:08:26;;;;;;;56.15;26.40;;;10.30;73.20;;;;;;2318463;58;21582;-64
2022/11/14 07:10:53;;;;;;;59.00;28.65;;;10.20;73.70;;;;;;2318975;58;21056;-65
2022/11/14 07:13:20;;;;;;;59.97;28.42;;;10.20;73.80;;;;;;2319120;58;21067;-64
2022/11/14 07:15:52;;;;;;;61.58;29.40;;;10.20;74.10;;;;;;2319365;58;21511;-65
2022/11/14 07:18:19;;;;;;;55.28;27.17;;;10.20;74.50;;;;;;2319300;58;21048;-63
2022/11/14 07:20:47;;;;;;;62.92;30.88;;;10.10;74.30;;;;;;2319191;58;21574;-65
2022/11/14 07:23:14;;;;;;;60.58;26.90;;;10.10;74.40;;;;;;2317511;58;21056;-64
2022/11/14 07:25:42;;;;;;;55.78;27.55;;;10.20;74.50;;;;;;2318261;58;21079;-67
2022/11/14 07:30:44;;;;;;;60.83;33.13;;;10.20;74.50;;;;;;2336301;57;27773;-65
2022/11/14 07:33:11;;;;;;;66.65;32.80;;;10.00;76.10;;;;;;2347032;57;21202;-65
2022/11/14 07:35:40;;;;;;;64.80;32.70;;;10.10;75.40;;;;;;2346094;57;21109;-64
2022/11/14 07:38:07;;;;;;;63.78;31.65;;;10.20;74.80;;;;;;2344996;57;21113;-66
2022/11/14 07:40:34;;;;;;;63.45;31.73;;;10.20;73.90;;;;;;2344635;57;21371;-68
2022/11/14 07:43:02;;;;;;;82.28;33.92;;;10.20;74.50;;;;;;2345416;57;21049;-66
2022/11/14 07:45:29;;;;;;;64.70;30.73;;;10.20;74.50;;;;;;2344507;57;21057;-68
2022/11/14 07:47:58;;;;;;;67.12;31.90;;;10.20;74.60;;;;;;2346154;57;21046;-68
2022/11/14 07:53:01;;;;;;;77.12;33.22;;;10.20;74.40;;;;;;2355064;57;22881;-67
2022/11/14 07:55:28;;;;;;;68.00;31.05;;;10.20;74.40;;;;;;2346337;57;21519;-64
2022/11/14 07:57:59;;;;;;;61.60;29.05;;;10.20;74.60;;;;;;2345910;57;21046;-65
2022/11/14 08:00:26;;;;;;;82.70;32.17;;;10.20;74.70;;;;;;2345314;57;21042;-67
2022/11/14 08:02:54;;;;;;;113.32;34.67;;;10.20;74.60;;;;;;2344614;57;21101;-70
2022/11/14 08:05:21;;;;;;;154.93;41.50;;;10.20;74.60;;;;;;2343623;57;21073;-68
2022/11/14 08:07:51;;;;;;;74.43;32.70;;;10.10;74.50;;;;;;2345673;57;21532;-69
2022/11/14 08:10:19;;;;;;;70.32;30.55;;;10.10;74.50;;;;;;2344988;57;21528;-67
2022/11/14 08:12:47;;;;;;;66.75;28.55;;;10.00;74.50;;;;;;2344283;57;21038;-67
2022/11/14 08:15:14;;;;;;;63.75;28.52;;;10.00;74.60;;;;;;2345828;57;21050;-64
2022/11/14 08:17:41;;;;;;;62.78;28.30;;;10.00;74.50;;;;;;2345461;57;22046;-66
2022/11/14 08:20:10;;;;;;;55.90;25.40;;;10.00;74.50;;;;;;2345943;57;21497;-66
2022/11/14 08:22:38;;;;;;;63.60;27.30;;;9.90;74.50;;;;;;2345998;57;21113;-67
2022/11/14 08:25:07;;;;;;;170.87;64.10;;;9.90;74.70;;;;;;2346415;57;21141;-66
2022/11/14 13:32:10;;;;;;;58.35;26.30;;;11.90;70.70;;;;;;2397783;53;24230;-59
2022/11/14 13:34:44;;;;;;;56.70;27.02;;;11.60;71.80;;;;;;2346839;57;21062;-59
2022/11/14 13:37:30;;;;;;;52.92;26.17;;;11.60;72.20;;;;;;2347841;57;21575;-61
2022/11/14 13:40:03;;;;;;;48.25;24.55;;;11.60;72.40;;;;;;2346383;57;21708;-61
2022/11/14 13:42:37;;;;;;;;;;;11.70;72.30;;;;;;2348905;57;21075;-60
2022/11/14 13:45:42;;;;;;;48.40;24.58;;;11.80;72.20;;;;;;2345095;57;20090;-62
2022/11/14 13:48:41;;;;;;;47.03;24.60;;;11.80;71.80;;;;;;2346163;57;21580;-59
2022/11/14 13:51:14;;;;;;;48.78;24.02;;;11.90;71.90;;;;;;2345643;57;21037;-59
2022/11/14 13:53:42;;;;;;;49.53;25.15;;;11.90;71.80;;;;;;2345838;57;21078;-60
2022/11/14 13:56:23;;;;;;;54.38;24.55;;;11.90;71.80;;;;;;2345819;57;21518;-60
2022/11/14 13:59:22;;;;;;;45.03;24.77;;;11.90;71.70;;;;;;2345547;57;21014;-61
2022/11/14 14:02:42;;;;;;;50.00;24.20;;;11.90;71.80;;;;;;2349655;53;21532;-60
2022/11/14 14:05:20;;;;;;;52.28;24.02;;;11.90;71.80;;;;;;2346073;57;21513;-59
2022/11/14 14:08:18;;;;;;;52.72;25.75;;;11.90;71.60;;;;;;2345079;57;21034;-60
2022/11/14 14:10:58;;;;;;;45.30;24.48;;;11.90;71.70;;;;;;2345990;57;21050;-59
2022/11/14 14:13:42;;;;;;;46.00;24.67;;;11.90;71.70;;;;;;2345660;57;21109;-61
2022/11/14 14:16:12;;;;;;;;;;;11.90;71.70;;;;;;2349708;57;21588;-60
2022/11/14 14:18:54;;;;;;;47.80;24.50;;;12.00;71.70;;;;;;2345789;57;20427;-60
2022/11/14 14:24:09;;;;;;;50.33;25.73;;;11.90;71.20;;;;;;2354097;57;22500;-60
2022/11/14 14:26:54;;;;;;;46.30;26.12;;;11.90;71.40;;;;;;2348456;52;21085;-62
2022/11/14 14:29:29;;;;;;;48.03;23.12;;;11.90;71.50;;;;;;2337577;57;21477;-65
2022/11/14 14:32:10;;;;;;;45.28;23.67;;;11.90;71.40;;;;;;2322536;58;21026;-66
2022/11/14 14:34:40;;;;;;;46.50;24.00;;;11.90;71.60;;;;;;2320761;58;21121;-66
2022/11/14 14:37:17;;;;;;;52.05;24.67;;;11.90;71.50;;;;;;2321733;58;21595;-64
2022/11/14 14:39:57;;;;;;;53.25;24.50;;;11.90;71.60;;;;;;2321889;58;21505;-64
2022/11/14 14:42:25;;;;;;;53.85;24.85;;;11.80;72.20;;;;;;2321294;58;21042;-64
2022/11/14 14:44:54;;;;;;;50.75;25.27;;;11.80;71.30;;;;;;2321551;58;21101;-63
2022/11/14 14:50:07;;;;;;;52.53;25.23;;;11.80;71.30;;;;;;2334494;57;23244;-64
2022/11/14 14:52:36;;;;;;;45.20;24.17;;;11.70;71.20;;;;;;2344815;57;21058;-65
2022/11/14 14:55:07;;;;;;;47.88;24.80;;;11.70;71.30;;;;;;2346025;57;21014;-66
2022/11/14 14:57:34;;;;;;;50.25;24.00;;;11.70;71.40;;;;;;2347251;57;21046;-63
2022/11/14 15:00:04;;;;;;;52.75;26.08;;;11.60;71.50;;;;;;2347551;57;21595;-63
2022/11/14 15:02:32;;;;;;;49.03;25.02;;;11.60;71.50;;;;;;2347017;57;21416;-63
2022/11/14 15:05:00;;;;;;;50.00;26.85;;;11.60;71.60;;;;;;2347690;57;21770;-62
2022/11/14 15:07:29;;;;;;;49.25;24.98;;;11.50;71.60;;;;;;2348006;57;21635;-62
2022/11/14 15:09:59;;;;;;;50.47;25.02;;;11.50;71.60;;;;;;2347852;57;21129;-61
2022/11/14 15:12:28;;;;;;;54.95;25.83;;;11.50;71.60;;;;;;2347904;57;21094;-62
2022/11/14 15:14:57;;;;;;;52.88;24.95;;;11.40;71.70;;;;;;2347868;57;21596;-62
2022/11/14 15:17:25;;;;;;;53.72;25.90;;;11.40;71.90;;;;;;2348000;57;21037;-62
2022/11/14 15:19:53;;;;;;;49.55;24.30;;;11.40;72.10;;;;;;2347418;57;21576;-62
2022/11/14 15:22:24;;;;;;;50.70;25.50;;;11.30;72.20;;;;;;2347073;57;21094;-65
2022/11/14 15:25:19;;;;;;;48.47;25.90;;;11.30;72.40;;;;;;2347728;57;21587;-64
2022/11/14 15:27:50;;;;;;;46.80;24.17;;;11.30;72.60;;;;;;2347967;57;21042;-64
2022/11/14 15:30:24;;;;;;;49.88;24.37;;;11.20;72.50;;;;;;2346901;57;21053;-66
2022/11/14 15:32:53;;;;;;;46.70;23.08;;;11.20;72.70;;;;;;2347819;57;21052;-66
2022/11/14 15:35:30;;;;;;;55.00;27.87;;;11.10;72.70;;;;;;2348212;57;21560;-65
2022/11/14 15:38:03;;;;;;;52.50;26.77;;;11.10;73.10;;;;;;2347654;57;21105;-66
2022/11/14 15:40:31;;;;;;;52.92;26.33;;;11.10;73.10;;;;;;2348482;57;21046;-66
2022/11/14 15:42:58;;;;;;;51.40;26.15;;;11.10;73.30;;;;;;2347560;57;22102;-66
2022/11/14 15:45:28;;;;;;;53.58;26.20;;;11.10;73.30;;;;;;2346324;57;21116;-66
2022/11/14 15:48:03;;;;;;;48.80;26.87;;;11.00;73.40;;;;;;2346701;57;21135;-66
2022/11/14 15:50:32;;;;;;;49.42;24.70;;;11.00;73.40;;;;;;2347843;57;21596;-66
2022/11/14 15:53:02;;;;;;;48.97;25.05;;;11.00;73.40;;;;;;2347977;57;21109;-65
2022/11/14 15:55:30;;;;;;;49.85;26.00;;;11.00;73.50;;;;;;2347399;57;21651;-65
2022/11/14 15:57:57;;;;;;;55.00;26.85;;;11.00;73.60;;;;;;2347400;57;21125;-64
2022/11/14 16:00:26;;;;;;;53.87;27.08;;;11.00;73.80;;;;;;2346015;57;21513;-59
2022/11/14 16:02:55;;;;;;;53.92;26.00;;;11.00;73.90;;;;;;2345988;57;21104;-59
2022/11/14 16:05:26;;;;;;;52.90;25.77;;;10.90;74.00;;;;;;2345203;57;21041;-60
2022/11/14 16:07:54;;;;;;;55.60;26.55;;;10.90;74.00;;;;;;2346644;57;21643;-58
2022/11/14 16:10:23;;;;;;;52.92;26.08;;;10.90;74.10;;;;;;2345992;57;21090;-61
2022/11/14 16:12:50;;;;;;;56.20;28.20;;;10.90;74.40;;;;;;2345502;57;21034;-58
2022/11/14 16:15:19;;;;;;;47.08;25.88;;;10.90;74.40;;;;;;2346352;57;21058;-53
2022/11/14 16:17:49;;;;;;;56.60;26.77;;;10.90;74.50;;;;;;2346335;57;21477;-55
2022/11/14 16:22:54;;;;;;;55.78;27.00;;;10.80;74.50;;;;;;2356947;57;22069;-57
2022/11/14 16:25:24;;;;;;;52.60;25.52;;;10.80;74.50;;;;;;2376345;56;21537;-57
2022/11/14 16:27:51;;;;;;;49.97;25.73;;;10.80;74.60;;;;;;2375396;56;22513;-61
2022/11/14 16:30:22;;;;;;;58.72;27.73;;;10.80;74.60;;;;;;2375774;56;21035;-60
2022/11/14 16:32:51;;;;;;;55.28;26.92;;;10.80;74.70;;;;;;2375592;56;21069;-58
2022/11/14 16:37:55;;;;;;;50.45;25.42;;;10.80;74.80;;;;;;2354295;57;22556;-58
2022/11/14 16:40:26;;;;;;;50.67;25.30;;;10.80;74.80;;;;;;2344960;57;21049;-57
2022/11/14 16:42:56;;;;;;;46.67;25.25;;;10.80;74.80;;;;;;2345482;57;21597;-59
2022/11/14 16:45:25;;;;;;;56.45;26.35;;;10.80;74.80;;;;;;2345479;57;21540;-62
2022/11/14 16:47:52;;;;;;;50.65;25.37;;;10.80;74.90;;;;;;2345633;57;21148;-61
2022/11/14 16:50:20;;;;;;;52.47;26.87;;;10.80;74.90;;;;;;2346122;57;21587;-60
2022/11/14 16:52:47;;;;;;;55.58;26.70;;;10.70;74.90;;;;;;2345027;57;21312;-60
2022/11/14 16:55:14;;;;;;;50.42;24.50;;;10.70;75.00;;;;;;2345980;57;21529;-58
2022/11/14 16:57:42;;;;;;;51.47;26.20;;;10.70;75.20;;;;;;2345765;57;21540;-58
2022/11/14 17:02:48;;;;;;;56.13;27.08;;;10.70;75.20;;;;;;2328172;57;22167;-59
2022/11/14 17:05:15;;;;;;;55.40;26.27;;;10.70;75.20;;;;;;2343920;57;21038;-66
2022/11/14 17:07:42;;;;;;;51.10;26.10;;;10.70;75.30;;;;;;2347333;57;21121;-58
2022/11/14 17:10:11;;;;;;;50.90;25.92;;;10.60;75.30;;;;;;2368796;56;21045;-57
2022/11/14 17:12:38;;;;;;;50.67;25.40;;;10.60;75.60;;;;;;2375377;56;21602;-59
2022/11/14 17:15:07;;;;;;;57.83;28.67;;;10.60;75.60;;;;;;2375307;56;21036;-58
2022/11/14 17:17:35;;;;;;;49.38;25.62;;;10.60;75.70;;;;;;2374825;56;21047;-56
2022/11/14 17:20:03;;;;;;;49.53;25.17;;;10.60;75.80;;;;;;2374428;56;21562;-57
2022/11/14 17:22:30;;;;;;;58.85;26.75;;;10.60;75.90;;;;;;2374870;56;21154;-58
2022/11/14 17:24:57;;;;;;;54.78;26.52;;;10.60;76.00;;;;;;2375347;56;21111;-59
2022/11/14 17:27:25;;;;;;;51.63;26.17;;;10.60;76.00;;;;;;2375541;56;21103;-58
2022/11/14 17:29:53;;;;;;;50.80;25.37;;;10.50;76.10;;;;;;2375455;56;21542;-58
2022/11/14 17:32:20;;;;;;;52.25;25.67;;;10.50;76.10;;;;;;2375004;56;21561;-57
2022/11/14 17:34:47;;;;;;;51.33;25.95;;;10.50;76.10;;;;;;2374532;56;21055;-58
2022/11/14 17:37:15;;;;;;;51.45;26.17;;;10.50;76.20;;;;;;2372405;56;21044;-58
2022/11/14 17:39:42;;;;;;;48.60;25.83;;;10.50;76.30;;;;;;2372477;56;21573;-58
2022/11/14 17:42:09;;;;;;;50.20;25.73;;;10.50;76.50;;;;;;2373246;56;21048;-58
2022/11/14 17:44:36;;;;;;;51.42;26.40;;;10.50;76.50;;;;;;2372283;56;21123;-60
2022/11/14 17:47:04;;;;;;;53.10;26.95;;;10.40;76.50;;;;;;2368733;56;21064;-54
2022/11/14 17:49:31;;;;;;;52.80;24.35;;;10.40;76.50;;;;;;2373192;56;21522;-56
2022/11/14 17:51:58;;;;;;;56.40;26.98;;;10.40;76.50;;;;;;2373758;56;21128;-58
2022/11/14 17:54:25;;;;;;;51.03;26.05;;;10.40;76.50;;;;;;2374280;56;21618;-58
2022/11/14 17:59:29;;;;;;;51.00;25.75;;;10.40;76.60;;;;;;2342466;57;22146;-59
2022/11/14 18:01:58;;;;;;;55.25;26.98;;;10.40;76.60;;;;;;2347047;57;21050;-59
2022/11/14 18:04:26;;;;;;;52.92;27.48;;;10.40;76.50;;;;;;2346714;57;21533;-60
2022/11/14 18:06:53;;;;;;;46.75;24.80;;;10.40;76.50;;;;;;2346698;57;22195;-58
2022/11/14 18:09:21;;;;;;;55.03;26.52;;;10.40;76.50;;;;;;2347638;57;21509;-60
2022/11/14 18:11:49;;;;;;;50.80;26.20;;;10.40;76.50;;;;;;2345198;57;21626;-59
2022/11/14 18:14:16;;;;;;;55.90;28.65;;;10.40;76.50;;;;;;2347862;57;21524;-57